Terminal Aerodrome Forecast
Issued by NWS Buffalo, NY

Home | Current Version | Previous Version | Text Only | Print | Product List | Glossary On
Versions: 1 2 3 4 5 6 7 8 9 10 11 12 13 14 15 16 17 18 19 20 21
000
FTUS41 KBUF 262300
TAFART
TAF
KART 262320Z 2700/2724 17004KT P6SM FEW040
     FM270200 21007KT P6SM BKN130
     FM270700 22007KT P6SM OVC120
     FM272300 18010KT P6SM BKN030 OVC070=

USA.gov is the U.S. government's official web portal to all federal, state and local government web resources and services.